createdAt,value
2023-06-30T00:01:34.988Z,18.20
2023-06-30T00:04:03.147Z,18.10
2023-06-30T00:06:31.025Z,18.10
2023-06-30T00:08:58.672Z,18.10
2023-06-30T00:11:26.332Z,18.00
2023-06-30T00:13:54.003Z,18.00
2023-06-30T00:16:22.156Z,17.90
2023-06-30T00:18:49.745Z,17.90
2023-06-30T00:21:17.235Z,17.90
2023-06-30T00:23:44.675Z,17.20
2023-06-30T00:26:12.214Z,17.90
2023-06-30T00:28:39.746Z,17.80
2023-06-30T00:31:07.299Z,17.80
2023-06-30T00:33:36.092Z,17.70
2023-06-30T00:36:03.646Z,17.70
2023-06-30T00:38:31.449Z,17.70
2023-06-30T00:40:58.989Z,17.60
2023-06-30T00:43:26.522Z,17.60
2023-06-30T00:45:54.177Z,17.60
2023-06-30T00:48:21.899Z,17.50
2023-06-30T00:50:50.041Z,17.50
2023-06-30T00:53:18.121Z,17.50
2023-06-30T00:55:46.288Z,17.50
2023-06-30T00:58:13.961Z,17.40
2023-06-30T01:00:41.421Z,17.40
2023-06-30T01:03:15.638Z,17.30
2023-06-30T01:05:55.889Z,17.30
2023-06-30T01:08:29.440Z,17.30
2023-06-30T01:10:57.935Z,17.20
2023-06-30T01:13:26.106Z,17.20
2023-06-30T01:15:54.306Z,17.20
2023-06-30T01:18:22.025Z,17.20
2023-06-30T01:20:50.273Z,17.10
2023-06-30T01:23:46.767Z,17.10
2023-06-30T01:26:14.872Z,17.10
2023-06-30T01:28:42.866Z,17.10
2023-06-30T01:31:10.913Z,17.00
2023-06-30T01:33:38.824Z,17.00
2023-06-30T01:36:07.400Z,17.00
2023-06-30T01:38:34.994Z,17.00
2023-06-30T01:41:02.974Z,17.00
2023-06-30T01:43:31.012Z,17.00
2023-06-30T01:45:58.728Z,16.90
2023-06-30T01:48:26.705Z,16.90
2023-06-30T01:50:55.069Z,16.90
2023-06-30T01:53:22.807Z,16.80
2023-06-30T01:55:50.450Z,16.80
2023-06-30T01:58:17.987Z,16.70
2023-06-30T02:00:45.694Z,16.70
2023-06-30T02:03:13.387Z,16.60
2023-06-30T02:05:40.934Z,16.60
2023-06-30T02:08:08.366Z,16.60
2023-06-30T02:10:36.162Z,16.60
2023-06-30T02:13:03.738Z,16.60
2023-06-30T02:15:31.234Z,16.60
2023-06-30T02:17:58.912Z,16.60
2023-06-30T02:20:26.569Z,16.60
2023-06-30T02:22:54.539Z,16.60
2023-06-30T02:25:22.075Z,16.70
2023-06-30T02:27:49.844Z,16.70
2023-06-30T02:30:17.346Z,16.70
2023-06-30T02:32:45.306Z,16.60
2023-06-30T02:35:13.700Z,16.80
2023-06-30T02:37:41.336Z,16.60
2023-06-30T02:40:10.300Z,16.60
2023-06-30T02:42:37.848Z,16.50
2023-06-30T02:45:06.163Z,16.50
2023-06-30T02:47:33.891Z,16.50
2023-06-30T02:50:01.407Z,16.50
2023-06-30T02:52:29.377Z,16.50
2023-06-30T02:54:56.904Z,16.40
2023-06-30T02:57:24.452Z,16.40
2023-06-30T02:59:52.095Z,16.30
2023-06-30T03:02:19.857Z,16.30
2023-06-30T03:04:47.448Z,16.20
2023-06-30T03:07:15.624Z,16.20
2023-06-30T03:09:43.333Z,16.10
2023-06-30T03:12:10.853Z,16.10
2023-06-30T03:14:38.286Z,16.10
2023-06-30T03:17:05.993Z,16.10
2023-06-30T03:19:33.606Z,16.10
2023-06-30T03:22:01.147Z,16.10
2023-06-30T03:24:28.662Z,16.10
2023-06-30T03:26:56.241Z,16.00
2023-06-30T03:29:24.113Z,15.90
2023-06-30T03:31:51.653Z,15.90
2023-06-30T03:34:19.275Z,15.90
2023-06-30T03:36:46.868Z,15.90
2023-06-30T03:39:14.809Z,15.90
2023-06-30T03:41:43.107Z,15.80
2023-06-30T03:44:12.361Z,15.80
2023-06-30T03:46:39.930Z,15.70
2023-06-30T03:49:07.454Z,15.60
2023-06-30T03:51:34.998Z,15.60
2023-06-30T03:54:02.668Z,15.50
2023-06-30T03:56:30.219Z,15.40
2023-06-30T03:58:57.690Z,15.20
2023-06-30T04:01:27.040Z,15.20
2023-06-30T04:03:54.665Z,15.10
2023-06-30T04:06:22.290Z,15.10
2023-06-30T04:08:50.764Z,15.10
2023-06-30T04:11:18.326Z,15.10
2023-06-30T04:13:45.898Z,15.00
2023-06-30T04:16:13.429Z,15.00
2023-06-30T04:18:41.009Z,14.90
2023-06-30T04:21:08.499Z,14.80
2023-06-30T04:23:37.023Z,14.90
2023-06-30T04:26:05.711Z,14.90
2023-06-30T04:28:33.254Z,14.80
2023-06-30T04:31:01.454Z,14.90
2023-06-30T04:33:29.035Z,14.80
2023-06-30T04:35:56.668Z,14.90
2023-06-30T04:38:25.255Z,15.00
2023-06-30T04:40:53.217Z,15.00
2023-06-30T04:43:20.995Z,15.00
2023-06-30T04:45:48.645Z,15.00
2023-06-30T04:48:16.247Z,15.00
2023-06-30T04:50:43.814Z,15.00
2023-06-30T04:53:11.342Z,15.00
2023-06-30T04:55:39.081Z,15.00
2023-06-30T04:58:06.556Z,15.00
2023-06-30T05:00:34.064Z,15.00
2023-06-30T05:03:03.467Z,15.00
2023-06-30T05:05:31.077Z,15.00
2023-06-30T05:07:58.597Z,14.90
2023-06-30T05:10:26.140Z,14.90
2023-06-30T05:12:53.669Z,14.90
2023-06-30T05:15:21.162Z,14.90
2023-06-30T05:17:48.763Z,15.00
2023-06-30T05:20:16.421Z,15.00
2023-06-30T05:22:43.962Z,15.00
2023-06-30T05:25:11.588Z,14.90
2023-06-30T05:27:39.092Z,14.90
2023-06-30T05:30:06.918Z,14.90
2023-06-30T05:32:34.556Z,15.00
2023-06-30T05:35:02.143Z,15.00
2023-06-30T05:37:29.631Z,14.90
2023-06-30T05:39:57.330Z,14.90
2023-06-30T05:42:24.790Z,14.80
2023-06-30T05:44:52.479Z,14.80
2023-06-30T05:47:20.012Z,14.80
2023-06-30T05:49:47.636Z,14.70
2023-06-30T05:52:15.169Z,14.70
2023-06-30T05:54:42.648Z,14.70
2023-06-30T05:57:10.142Z,14.80
2023-06-30T05:59:38.221Z,14.80
2023-06-30T06:02:05.915Z,14.90
2023-06-30T06:04:33.541Z,15.00
2023-06-30T06:07:04.102Z,15.10
2023-06-30T06:09:32.198Z,15.20
2023-06-30T06:11:59.786Z,15.20
2023-06-30T06:14:27.468Z,15.30
2023-06-30T06:16:54.985Z,15.20
2023-06-30T06:19:22.484Z,15.20
2023-06-30T06:21:49.989Z,15.20
2023-06-30T06:24:20.352Z,15.40
2023-06-30T06:26:47.867Z,15.40
2023-06-30T06:29:20.236Z,15.50
2023-06-30T06:31:49.978Z,15.60
2023-06-30T06:34:20.974Z,15.70
2023-06-30T06:36:48.667Z,15.60
2023-06-30T06:39:16.438Z,15.60
2023-06-30T06:41:46.102Z,15.70
2023-06-30T06:44:13.700Z,15.70
2023-06-30T06:46:41.310Z,15.80
2023-06-30T06:49:08.891Z,15.90
2023-06-30T06:51:37.965Z,16.00
2023-06-30T06:54:05.445Z,16.20
2023-06-30T06:56:32.935Z,16.20
2023-06-30T06:59:00.500Z,16.20
2023-06-30T07:01:28.129Z,16.20
2023-06-30T07:03:55.700Z,16.20
2023-06-30T07:06:23.613Z,16.30
2023-06-30T07:08:51.324Z,16.40
2023-06-30T07:11:18.869Z,16.40
2023-06-30T07:13:46.367Z,16.50
2023-06-30T07:16:14.344Z,16.50
2023-06-30T07:18:42.076Z,16.50
2023-06-30T07:21:09.666Z,16.50
2023-06-30T07:23:37.145Z,16.50
2023-06-30T07:26:04.638Z,16.50
2023-06-30T07:28:32.599Z,16.60
2023-06-30T07:31:00.241Z,16.60
2023-06-30T07:33:27.490Z,16.70
2023-06-30T07:35:54.760Z,16.70
2023-06-30T07:38:22.489Z,16.70
2023-06-30T07:40:56.648Z,16.70
2023-06-30T07:43:25.126Z,16.70
2023-06-30T07:45:52.671Z,16.80
2023-06-30T07:48:20.303Z,16.80
2023-06-30T07:50:59.501Z,16.90
2023-06-30T07:53:35.373Z,17.00
2023-06-30T07:56:02.875Z,16.90
2023-06-30T07:58:30.490Z,17.00
2023-06-30T08:00:58.012Z,17.10
2023-06-30T08:03:25.691Z,17.10
2023-06-30T08:05:53.926Z,17.30
2023-06-30T08:08:22.141Z,17.30
2023-06-30T08:10:49.721Z,17.40
2023-06-30T08:13:17.318Z,17.50
2023-06-30T08:15:48.665Z,17.50
2023-06-30T08:18:31.592Z,17.50
2023-06-30T08:21:01.678Z,17.60
2023-06-30T08:23:29.272Z,17.80
2023-06-30T08:25:56.783Z,17.80
2023-06-30T08:28:24.272Z,17.70
2023-06-30T08:30:52.612Z,17.80
2023-06-30T08:33:40.033Z,17.80
2023-06-30T08:36:08.758Z,17.70
2023-06-30T08:38:36.316Z,17.60
2023-06-30T08:41:04.506Z,17.60
2023-06-30T08:43:32.664Z,17.60
2023-06-30T08:46:04.572Z,17.70
2023-06-30T08:48:32.827Z,17.70
2023-06-30T08:51:00.749Z,17.70
2023-06-30T08:53:30.383Z,17.80
2023-06-30T08:55:59.206Z,17.80
2023-06-30T08:58:27.771Z,17.90
2023-06-30T09:00:56.709Z,18.00
2023-06-30T09:03:24.722Z,18.00
2023-06-30T09:05:53.795Z,18.10
2023-06-30T09:08:24.426Z,18.10
2023-06-30T09:10:52.024Z,17.90
2023-06-30T09:13:20.642Z,17.90
2023-06-30T09:15:48.978Z,17.90
2023-06-30T09:18:16.879Z,18.10
2023-06-30T09:20:44.358Z,18.20
2023-06-30T09:23:11.906Z,18.30
2023-06-30T09:25:40.986Z,18.30
2023-06-30T09:28:11.071Z,18.50
2023-06-30T09:30:41.199Z,18.60
2023-06-30T09:33:09.773Z,18.60
2023-06-30T09:35:41.283Z,18.80
2023-06-30T09:38:09.353Z,18.90
2023-06-30T09:40:36.954Z,19.00
2023-06-30T09:43:05.485Z,19.00
2023-06-30T09:45:33.109Z,19.00
2023-06-30T09:48:00.680Z,18.80
2023-06-30T09:50:30.864Z,18.70
2023-06-30T09:52:58.889Z,18.80
2023-06-30T09:55:26.404Z,18.70
2023-06-30T09:57:56.496Z,18.70
2023-06-30T10:00:35.509Z,18.80
2023-06-30T10:03:04.311Z,18.90
2023-06-30T10:05:32.032Z,18.90
2023-06-30T10:08:00.916Z,19.00
2023-06-30T10:10:31.933Z,19.00
2023-06-30T10:12:59.999Z,19.10
2023-06-30T10:15:27.913Z,19.20
2023-06-30T10:17:56.289Z,19.20
2023-06-30T10:20:33.874Z,19.20
2023-06-30T10:23:10.539Z,19.30
2023-06-30T10:25:40.983Z,19.30
2023-06-30T10:28:08.531Z,19.20
2023-06-30T10:30:36.509Z,19.40
2023-06-30T10:33:04.376Z,19.20
2023-06-30T10:35:32.353Z,19.30
2023-06-30T10:38:00.263Z,19.30
2023-06-30T10:40:28.955Z,19.30
2023-06-30T10:42:57.002Z,19.40
2023-06-30T10:45:28.649Z,19.30
2023-06-30T10:47:56.307Z,19.40
2023-06-30T10:50:24.579Z,19.70
2023-06-30T10:52:53.201Z,19.70
2023-06-30T10:55:27.156Z,19.60
2023-06-30T10:57:55.893Z,19.50
2023-06-30T11:00:27.802Z,19.30
2023-06-30T11:02:59.454Z,19.20
2023-06-30T11:05:34.110Z,19.20
2023-06-30T11:08:07.732Z,19.30
2023-06-30T11:10:39.517Z,19.20
2023-06-30T11:13:10.360Z,19.20
2023-06-30T11:15:47.056Z,19.40
2023-06-30T11:18:23.007Z,19.40
2023-06-30T11:21:04.024Z,19.50
2023-06-30T11:23:37.220Z,19.30
2023-06-30T11:26:17.767Z,19.20
2023-06-30T11:28:49.090Z,19.20
2023-06-30T11:31:17.025Z,19.20
2023-06-30T11:33:45.244Z,19.20
2023-06-30T11:36:13.288Z,19.00
2023-06-30T11:38:50.498Z,19.00
2023-06-30T11:41:18.513Z,18.90
2023-06-30T11:43:54.692Z,18.80
2023-06-30T11:46:25.120Z,18.70
2023-06-30T11:48:52.794Z,18.80
2023-06-30T11:51:20.345Z,18.80
2023-06-30T11:53:48.204Z,18.70
2023-06-30T11:56:21.159Z,18.70
2023-06-30T11:58:52.524Z,18.70
2023-06-30T12:01:23.337Z,18.70
2023-06-30T12:03:54.825Z,18.70
2023-06-30T12:06:25.174Z,18.70
2023-06-30T12:08:52.632Z,18.80
2023-06-30T12:11:20.164Z,18.80
2023-06-30T12:13:48.463Z,18.80
2023-06-30T12:16:16.095Z,18.80
2023-06-30T12:18:44.833Z,18.80
2023-06-30T12:21:15.433Z,18.60
2023-06-30T12:23:43.376Z,18.40
2023-06-30T12:26:14.429Z,18.20
2023-06-30T12:28:44.753Z,18.20
2023-06-30T12:31:12.284Z,18.20
2023-06-30T12:33:39.796Z,18.20
2023-06-30T12:36:07.802Z,18.20
2023-06-30T12:38:35.438Z,18.20
2023-06-30T12:41:03.820Z,18.30
2023-06-30T12:43:31.984Z,18.40
2023-06-30T12:45:59.585Z,18.30
2023-06-30T12:48:27.112Z,18.30
2023-06-30T12:50:57.454Z,18.20
2023-06-30T12:53:25.255Z,18.10
2023-06-30T12:55:52.831Z,18.10
2023-06-30T12:58:20.758Z,18.20
2023-06-30T13:00:48.633Z,18.40
2023-06-30T13:03:16.130Z,18.30
2023-06-30T13:05:43.463Z,18.10
2023-06-30T13:08:10.743Z,18.10
2023-06-30T13:10:38.265Z,18.10
2023-06-30T13:13:05.761Z,18.10
2023-06-30T13:15:33.204Z,18.10
2023-06-30T13:18:00.902Z,18.20
2023-06-30T13:20:28.660Z,18.10
2023-06-30T13:23:12.401Z,18.10
2023-06-30T13:25:44.000Z,18.10
2023-06-30T13:28:12.455Z,18.00
2023-06-30T13:30:39.967Z,17.80
2023-06-30T13:33:09.003Z,17.90
2023-06-30T13:35:38.538Z,17.90
2023-06-30T13:38:06.143Z,18.00
2023-06-30T13:40:33.612Z,18.00
2023-06-30T13:43:01.130Z,18.10
2023-06-30T13:45:28.797Z,18.10
2023-06-30T13:47:56.482Z,18.20
2023-06-30T13:50:24.361Z,18.20
2023-06-30T13:52:52.792Z,18.20
2023-06-30T13:55:20.381Z,18.20
2023-06-30T13:57:47.852Z,18.20
2023-06-30T14:00:15.598Z,18.20
2023-06-30T14:02:43.131Z,18.10
2023-06-30T14:05:10.887Z,18.00
2023-06-30T14:07:38.417Z,17.90
2023-06-30T14:10:06.101Z,17.90
2023-06-30T14:12:33.718Z,17.90
2023-06-30T14:15:01.256Z,17.80
2023-06-30T14:17:28.910Z,17.80
2023-06-30T14:19:56.606Z,17.70
2023-06-30T14:22:26.030Z,17.70
2023-06-30T14:24:53.602Z,17.70
2023-06-30T14:27:21.117Z,17.60
2023-06-30T14:29:48.651Z,17.60
2023-06-30T14:32:16.563Z,17.60
2023-06-30T14:34:44.610Z,17.50
2023-06-30T14:37:12.220Z,17.60
2023-06-30T14:39:39.966Z,17.60
2023-06-30T14:42:09.202Z,17.70
2023-06-30T14:44:43.786Z,17.80
2023-06-30T14:47:11.317Z,17.90
2023-06-30T14:49:38.951Z,18.00
2023-06-30T14:52:06.650Z,18.00
2023-06-30T14:54:34.237Z,18.00
2023-06-30T14:57:01.704Z,18.10
2023-06-30T14:59:29.908Z,18.20
2023-06-30T15:01:57.378Z,18.20
2023-06-30T15:04:24.961Z,18.30
2023-06-30T15:06:52.582Z,18.30
2023-06-30T15:09:20.220Z,18.30
2023-06-30T15:11:47.870Z,18.30
2023-06-30T15:14:15.371Z,18.30
2023-06-30T15:16:42.945Z,18.20
2023-06-30T15:19:10.500Z,18.20
2023-06-30T15:21:37.985Z,18.20
2023-06-30T15:24:05.555Z,18.20
2023-06-30T15:26:33.027Z,18.20
2023-06-30T15:29:00.541Z,18.20
2023-06-30T15:33:55.896Z,18.00
2023-06-30T15:36:23.448Z,18.00
2023-06-30T15:38:50.899Z,18.00
2023-06-30T15:43:48.886Z,18.20
2023-06-30T15:46:17.507Z,18.10
2023-06-30T15:48:45.117Z,18.10
2023-06-30T15:51:13.070Z,18.10
2023-06-30T15:53:40.567Z,18.10
2023-06-30T15:56:08.187Z,18.10
2023-06-30T15:58:35.775Z,18.10
2023-06-30T16:01:03.390Z,18.10
2023-06-30T16:03:31.217Z,18.20
2023-06-30T16:05:58.832Z,18.20
2023-06-30T16:08:26.400Z,18.20
2023-06-30T16:10:53.891Z,18.10
2023-06-30T16:13:21.429Z,18.10
2023-06-30T16:15:49.216Z,18.10
2023-06-30T16:18:18.364Z,18.10
2023-06-30T16:20:46.008Z,18.00
2023-06-30T16:23:13.475Z,17.90
2023-06-30T16:25:40.936Z,17.80
2023-06-30T16:28:08.621Z,17.70
2023-06-30T16:30:37.462Z,17.70
2023-06-30T16:33:05.100Z,17.70
2023-06-30T16:35:34.316Z,17.70
2023-06-30T16:38:02.424Z,17.60
2023-06-30T16:40:30.048Z,17.60
2023-06-30T16:42:57.845Z,17.50
2023-06-30T16:45:25.533Z,17.50
2023-06-30T16:47:53.154Z,17.50
2023-06-30T16:50:21.093Z,17.50
2023-06-30T16:52:49.415Z,17.50
2023-06-30T16:55:17.275Z,17.50
2023-06-30T16:57:48.446Z,17.60
2023-06-30T17:00:16.049Z,17.70
2023-06-30T17:02:44.135Z,17.60
2023-06-30T17:05:14.678Z,17.70
2023-06-30T17:07:42.331Z,17.70
2023-06-30T17:10:10.104Z,17.70
2023-06-30T17:12:40.008Z,17.60
2023-06-30T17:15:08.839Z,17.60
2023-06-30T17:17:36.586Z,17.60
2023-06-30T17:20:05.089Z,17.50
2023-06-30T17:22:32.732Z,17.50
2023-06-30T17:25:04.956Z,17.40
2023-06-30T17:27:33.405Z,17.40
2023-06-30T17:30:00.928Z,17.50
2023-06-30T17:32:28.656Z,17.50
2023-06-30T17:34:56.340Z,17.40
2023-06-30T17:37:23.959Z,17.40
2023-06-30T17:39:51.507Z,17.40
2023-06-30T17:42:18.943Z,17.40
2023-06-30T17:44:46.419Z,17.40
2023-06-30T17:47:13.893Z,17.50
2023-06-30T17:49:42.838Z,17.50
2023-06-30T17:52:10.494Z,17.50
2023-06-30T17:54:38.180Z,17.50
2023-06-30T17:57:05.931Z,17.50
2023-06-30T17:59:33.487Z,17.60
2023-06-30T18:02:01.866Z,17.60
2023-06-30T18:04:30.469Z,17.60
2023-06-30T18:07:12.416Z,17.60
2023-06-30T18:09:41.173Z,17.60
2023-06-30T18:12:09.129Z,17.60
2023-06-30T18:14:37.440Z,17.60
2023-06-30T18:17:05.161Z,17.60
2023-06-30T18:19:32.877Z,17.60
2023-06-30T18:22:00.330Z,17.60
2023-06-30T18:24:28.042Z,17.60
2023-06-30T18:26:55.547Z,17.50
2023-06-30T18:29:26.850Z,17.50
2023-06-30T18:31:56.157Z,17.50
2023-06-30T18:34:26.039Z,17.50
2023-06-30T18:36:53.578Z,17.50
2023-06-30T18:39:21.254Z,17.50
2023-06-30T18:41:48.926Z,17.60
2023-06-30T18:44:16.373Z,17.60
2023-06-30T18:46:44.088Z,17.60
2023-06-30T18:49:12.772Z,17.70
2023-06-30T18:51:43.052Z,17.70
2023-06-30T18:54:10.828Z,17.70
2023-06-30T18:56:38.563Z,17.80
2023-06-30T18:59:06.090Z,17.80
2023-06-30T19:01:34.181Z,17.80
2023-06-30T19:04:01.794Z,17.80
2023-06-30T19:06:29.417Z,17.80
2023-06-30T19:08:57.311Z,17.80
2023-06-30T19:11:25.418Z,17.80
2023-06-30T19:13:52.975Z,17.80
2023-06-30T19:16:20.566Z,17.80
2023-06-30T19:18:48.187Z,17.80
2023-06-30T19:21:15.674Z,17.80
2023-06-30T19:23:43.390Z,17.80
2023-06-30T19:26:11.594Z,17.80
2023-06-30T19:28:40.521Z,17.80
2023-06-30T19:31:09.649Z,17.90
2023-06-30T19:33:38.014Z,17.90
2023-06-30T19:36:05.987Z,17.90
2023-06-30T19:38:33.692Z,17.90
2023-06-30T19:41:01.387Z,18.00
2023-06-30T19:43:29.177Z,17.90
2023-06-30T19:45:56.802Z,17.90
2023-06-30T19:48:24.327Z,17.90
2023-06-30T19:50:51.923Z,17.90
2023-06-30T19:53:19.590Z,17.90
2023-06-30T19:55:47.474Z,18.00
2023-06-30T19:58:16.614Z,17.90
2023-06-30T20:00:44.148Z,17.90
2023-06-30T20:03:11.717Z,17.90
2023-06-30T20:05:39.301Z,17.90
2023-06-30T20:08:06.771Z,17.90
2023-06-30T20:10:35.524Z,17.80
2023-06-30T20:13:03.315Z,17.80
2023-06-30T20:15:32.429Z,17.80
2023-06-30T20:18:00.076Z,17.80
2023-06-30T20:20:28.907Z,17.80
2023-06-30T20:22:56.799Z,17.80
2023-06-30T20:25:27.808Z,17.80
2023-06-30T20:27:55.258Z,17.80
2023-06-30T20:30:23.024Z,17.80
2023-06-30T20:32:50.503Z,17.80
2023-06-30T20:35:20.116Z,17.80
2023-06-30T20:37:47.968Z,17.80
2023-06-30T20:40:15.663Z,17.80
2023-06-30T20:42:43.184Z,17.80
2023-06-30T20:45:10.841Z,17.80
2023-06-30T20:47:38.464Z,17.80
2023-06-30T20:50:06.389Z,17.80
2023-06-30T20:52:33.951Z,17.80
2023-06-30T20:55:01.421Z,17.80
2023-06-30T20:57:29.097Z,17.80
2023-06-30T20:59:56.737Z,17.80
2023-06-30T21:02:24.301Z,17.80
2023-06-30T21:04:54.077Z,17.80
2023-06-30T21:07:21.834Z,17.80
2023-06-30T21:09:49.354Z,17.80
2023-06-30T21:12:16.883Z,17.80
2023-06-30T21:14:44.649Z,17.80
2023-06-30T21:17:12.157Z,17.80
2023-06-30T21:19:40.992Z,17.80
2023-06-30T21:22:10.765Z,17.80
2023-06-30T21:24:38.259Z,17.80
2023-06-30T21:27:05.907Z,17.80
2023-06-30T21:29:33.372Z,17.80
2023-06-30T21:32:01.047Z,17.80
2023-06-30T21:34:28.694Z,17.80
2023-06-30T21:36:56.305Z,17.80
2023-06-30T21:39:23.954Z,17.90
2023-06-30T21:41:51.514Z,17.90
2023-06-30T21:44:19.045Z,17.90
2023-06-30T21:46:46.620Z,17.80
2023-06-30T21:49:14.074Z,17.90
2023-06-30T21:51:41.539Z,17.90
2023-06-30T21:54:08.992Z,17.80
2023-06-30T21:56:36.680Z,17.80
2023-06-30T21:59:04.201Z,17.80
2023-06-30T22:01:39.946Z,17.80
2023-06-30T22:04:08.641Z,17.90
2023-06-30T22:06:36.551Z,17.90
2023-06-30T22:09:11.644Z,17.90
2023-06-30T22:11:44.453Z,17.90
2023-06-30T22:14:15.215Z,17.90
2023-06-30T22:16:43.028Z,17.90
2023-06-30T22:19:10.504Z,17.90
2023-06-30T22:21:38.006Z,17.90
2023-06-30T22:24:05.610Z,17.90
2023-06-30T22:26:33.088Z,17.90
2023-06-30T22:29:00.647Z,17.90
2023-06-30T22:31:28.238Z,17.90
2023-06-30T22:33:55.720Z,17.90
2023-06-30T22:36:23.232Z,17.90
2023-06-30T22:38:51.127Z,17.90
2023-06-30T22:41:18.641Z,18.00
2023-06-30T22:43:46.351Z,18.00
2023-06-30T22:46:13.907Z,18.00
2023-06-30T22:48:41.670Z,18.00
2023-06-30T22:51:10.249Z,18.00
2023-06-30T22:53:37.671Z,18.00
2023-06-30T22:56:07.488Z,17.90
2023-06-30T22:58:35.069Z,18.00
2023-06-30T23:01:02.558Z,18.00
2023-06-30T23:03:30.259Z,18.00
2023-06-30T23:05:57.853Z,18.00
2023-06-30T23:08:25.340Z,17.90
2023-06-30T23:10:54.034Z,18.00
2023-06-30T23:13:21.519Z,18.00
2023-06-30T23:15:49.203Z,18.00
2023-06-30T23:18:20.340Z,18.00
2023-06-30T23:20:48.385Z,18.00
2023-06-30T23:23:15.985Z,18.00
2023-06-30T23:25:43.498Z,18.00
2023-06-30T23:28:10.959Z,18.00
2023-06-30T23:30:40.966Z,18.00
2023-06-30T23:33:08.939Z,18.00
2023-06-30T23:35:36.513Z,18.10
2023-06-30T23:38:03.986Z,18.10
2023-06-30T23:40:31.524Z,18.10
2023-06-30T23:43:01.064Z,18.10
2023-06-30T23:45:28.860Z,18.00
2023-06-30T23:47:56.383Z,18.00
2023-06-30T23:50:24.154Z,18.00
2023-06-30T23:52:51.607Z,18.00
2023-06-30T23:55:19.278Z,18.00
2023-06-30T23:57:46.747Z,18.00
